Arann AT42 at Cardiff on Oct 11th 2013, burst tyre on landing

Last Update: October 11, 2013 / 22:51:37 GMT/Zulu time

Bookmark this article
Incident Facts

Date of incident
Oct 11, 2013

Classification
Incident

Airline
Aer Arann

Flight number
EI-3296

Aircraft Registration
EI-CBK

Aircraft Type
ATR ATR-42

ICAO Type Designator
AT42

Airport ICAO Code
EGFF

An Aer Arann Avions de Tansport Regional ATR-42-300 on behalf of Aer Lingus, registration EI-CBK performing flight EI-3296 from Dublin (Ireland) to Cardiff,WL (UK) with 37 passengers, landed on Cardiff's runway 12 but burst the outboard right hand tyre and came to a stop disabled on the runway.

The airport was closed for about 2 hours until the aircraft was moved to the apron.

Metars:
EGFF 111750Z 03015KT 9999 SCT027 BKN038 13/08 Q1022
EGFF 111720Z 04013KT 9999 BKN027 13/08 Q1022
EGFF 111650Z 03015KT 9999 SCT028 13/09 Q1022
EGFF 111620Z 03015KT 9999 SCT026 14/09 Q1022
EGFF 111550Z 02014KT 9999 BKN027 14/09 Q1022
EGFF 111520Z 05015KT 9999 SCT023 BKN043 14/09 Q1022
EGFF 111450Z 04016KT 9999 BKN019 14/10 Q1022
EGFF 111420Z 02013KT 9999 BKN019 13/10 Q1022
EGFF 111350Z 02010KT 9999 BKN021 13/10 Q1022
EGFF 111320Z 02013KT 9999 BKN022 BKN042 14/09 Q1022
EGFF 111250Z 03012KT 9999 SCT033 SCT043 14/09 Q1022
EGFF 111220Z 04013KT 9999 BKN030 14/08 Q1022
EGFF 111150Z 05014KT 9999 SCT028 15/08 Q1022
Aircraft Registration Data
Registration mark
EI-CBK
Country of Registration
Ireland
Date of Registration
Digjhhflbnebeleii Subscribe to unlock
Manufacturer
ATR-GIE AVIONS DE TRANSPORT REGIONAL
Aircraft Model / Type
ATR 42-300
ICAO Aircraft Type
AT42
Year of Manufacture
Serial Number
Maximum Take off Mass (MTOM) [kg]
Engine Count
Engine
Main Owner
Ickfcnll mlkhk pkdhgkjffehglhllcjkAmbehdqepbAefAd pn qbmhl Subscribe to unlock
Incident Facts

Date of incident
Oct 11, 2013

Classification
Incident

Airline
Aer Arann

Flight number
EI-3296

Aircraft Registration
EI-CBK

Aircraft Type
ATR ATR-42

ICAO Type Designator
AT42

Airport ICAO Code
EGFF

This article is published under license from Avherald.com. © of text by Avherald.com.
Article source

You can read 2 more free articles without a subscription.

Subscribe now and continue reading without any limits!

Are you a subscriber? Login
Subscribe

Read unlimited articles and receive our daily update briefing. Gain better insights into what is happening in commercial aviation safety.

Send tip

Support AeroInside by sending a small tip amount.

Related articles

Newest articles

Subscribe today

Are you researching aviation incidents? Get access to AeroInside Insights, unlimited read access and receive the daily newsletter.

Pick your plan and subscribe

Partner

Blockaviation logo

A new way to document and demonstrate airworthiness compliance and aircraft value. Find out more.

ELITE Logo

ELITE Simulation Solutions is a leading global provider of Flight Simulation Training Devices, IFR training software as well as flight controls and related services. Find out more.

Blue Altitude Logo

Your regulation partner, specialists in aviation safety and compliance; providing training, auditing, and consultancy services. Find out more.

AeroInside Blog
Popular aircraft
Airbus A320
Boeing 737-800
Boeing 737-800 MAX
Popular airlines
American Airlines
United
Delta
Air Canada
Lufthansa
British Airways